createdAt,value
2018-09-19T00:01:50.322Z,1009.99
2018-09-19T00:02:50.265Z,1009.99
2018-09-19T00:04:44.449Z,1010.03
2018-09-19T00:05:44.426Z,1010.01
2018-09-19T00:07:38.743Z,1010.01
2018-09-19T00:08:38.703Z,1009.99
2018-09-19T00:10:32.869Z,1010.06
2018-09-19T00:11:32.900Z,1010.09
2018-09-19T00:13:27.040Z,1010.14
2018-09-19T00:14:26.970Z,1010.12
2018-09-19T00:16:21.142Z,1010.12
2018-09-19T00:17:21.167Z,1010.11
2018-09-19T00:19:15.850Z,1010.01
2018-09-19T00:20:15.891Z,1010.03
2018-09-19T00:22:10.478Z,1010.04
2018-09-19T00:23:14.216Z,1010.03
2018-09-19T00:25:05.240Z,1010.01
2018-09-19T00:26:05.146Z,1010.00
2018-09-19T00:27:59.824Z,1010.01
2018-09-19T00:28:59.821Z,1010.02
2018-09-19T00:30:54.037Z,1010.03
2018-09-19T00:31:54.002Z,1010.05
2018-09-19T00:33:48.649Z,1010.07
2018-09-19T00:34:48.667Z,1010.06
2018-09-19T00:36:43.431Z,1010.05
2018-09-19T00:37:43.342Z,1010.05
2018-09-19T00:39:37.544Z,1010.09
2018-09-19T00:40:38.217Z,1010.11
2018-09-19T00:42:32.711Z,1010.18
2018-09-19T00:43:32.703Z,1010.18
2018-09-19T00:45:26.951Z,1010.19
2018-09-19T00:46:26.952Z,1010.16
2018-09-19T00:48:21.746Z,1010.19
2018-09-19T00:49:21.589Z,1010.16
2018-09-19T00:51:15.936Z,1010.18
2018-09-19T00:52:16.241Z,1010.15
2018-09-19T00:54:10.809Z,1010.20
2018-09-19T00:55:11.012Z,1010.22
2018-09-19T00:57:05.656Z,1010.20
2018-09-19T00:58:06.051Z,1010.22
2018-09-19T01:00:00.053Z,1010.20
2018-09-19T01:01:00.168Z,1010.18
2018-09-19T01:02:56.411Z,1010.20
2018-09-19T01:03:54.880Z,1010.19
2018-09-19T01:05:49.079Z,1010.23
2018-09-19T01:06:49.157Z,1010.25
2018-09-19T01:08:43.764Z,1010.28
2018-09-19T01:09:44.249Z,1010.28
2018-09-19T01:11:38.697Z,1010.28
2018-09-19T01:12:38.872Z,1010.24
2018-09-19T01:14:33.141Z,1010.27
2018-09-19T01:15:33.508Z,1010.27
2018-09-19T01:18:03.493Z,1010.29
2018-09-19T01:19:03.635Z,1010.30
2018-09-19T01:20:57.867Z,1010.29
2018-09-19T01:21:58.126Z,1010.26
2018-09-19T01:23:52.955Z,1010.32
2018-09-19T01:24:52.906Z,1010.36
2018-09-19T01:26:47.159Z,1010.40
2018-09-19T01:27:47.493Z,1010.43
2018-09-19T01:29:42.248Z,1010.44
2018-09-19T01:30:42.181Z,1010.42
2018-09-19T01:32:36.861Z,1010.44
2018-09-19T01:33:39.522Z,1010.45
2018-09-19T01:35:31.823Z,1010.50
2018-09-19T01:36:31.971Z,1010.51
2018-09-19T01:38:26.341Z,1010.51
2018-09-19T01:39:26.622Z,1010.51
2018-09-19T01:41:20.911Z,1010.54
2018-09-19T01:42:20.936Z,1010.60
2018-09-19T01:44:15.330Z,1010.64
2018-09-19T01:45:15.617Z,1010.62
2018-09-19T01:47:10.134Z,1010.66
2018-09-19T01:48:10.205Z,1010.63
2018-09-19T01:50:04.502Z,1010.64
2018-09-19T01:51:05.372Z,1010.65
2018-09-19T01:53:24.268Z,1010.70
2018-09-19T01:54:24.210Z,1010.74
2018-09-19T01:56:18.779Z,1010.73
2018-09-19T01:57:18.349Z,1010.76
2018-09-19T01:59:12.574Z,1010.80
2018-09-19T02:00:12.896Z,1010.81
2018-09-19T02:02:06.843Z,1010.80
2018-09-19T02:03:07.099Z,1010.85
2018-09-19T02:05:13.429Z,1010.85
2018-09-19T02:06:13.693Z,1010.90
2018-09-19T02:08:07.839Z,1010.90
2018-09-19T02:09:08.250Z,1010.91
2018-09-19T02:11:02.776Z,1010.90
2018-09-19T02:12:02.892Z,1010.86
2018-09-19T02:13:56.749Z,1010.82
2018-09-19T02:14:57.544Z,1010.82
2018-09-19T02:16:51.699Z,1010.81
2018-09-19T02:17:51.829Z,1010.82
2018-09-19T02:19:46.293Z,1010.81
2018-09-19T02:20:46.869Z,1010.83
2018-09-19T02:22:41.317Z,1010.83
2018-09-19T02:23:41.566Z,1010.86
2018-09-19T02:25:35.243Z,1010.86
2018-09-19T02:26:35.719Z,1010.89
2018-09-19T02:28:29.904Z,1010.89
2018-09-19T02:29:30.001Z,1010.89
2018-09-19T02:31:24.264Z,1010.88
2018-09-19T02:33:58.431Z,1010.84
2018-09-19T02:34:58.493Z,1010.80
2018-09-19T02:37:22.028Z,1010.83
2018-09-19T02:38:22.413Z,1010.81
2018-09-19T02:39:22.403Z,1010.81
2018-09-19T02:40:22.399Z,1010.81
2018-09-19T02:41:22.385Z,1010.80
2018-09-19T02:43:55.633Z,1010.86
2018-09-19T02:44:55.807Z,1010.86
2018-09-19T02:46:50.017Z,1010.86
2018-09-19T02:47:50.495Z,1010.86
2018-09-19T02:49:44.758Z,1010.83
2018-09-19T02:50:44.860Z,1010.83
2018-09-19T02:52:39.430Z,1010.90
2018-09-19T02:53:39.835Z,1010.93
2018-09-19T02:55:34.397Z,1010.93
2018-09-19T02:56:34.762Z,1010.85
2018-09-19T02:58:28.727Z,1010.90
2018-09-19T02:59:29.173Z,1010.84
2018-09-19T03:01:23.210Z,1010.92
2018-09-19T03:02:23.310Z,1010.93
2018-09-19T03:04:18.078Z,1010.90
2018-09-19T03:05:17.637Z,1010.96
2018-09-19T03:07:11.611Z,1010.89
2018-09-19T03:08:11.800Z,1010.86
2018-09-19T03:10:06.365Z,1010.92
2018-09-19T03:11:06.815Z,1010.91
2018-09-19T03:13:01.316Z,1010.88
2018-09-19T03:14:01.501Z,1010.87
2018-09-19T03:15:55.419Z,1010.79
2018-09-19T03:16:55.717Z,1010.82
2018-09-19T03:18:50.312Z,1010.82
2018-09-19T03:19:50.474Z,1010.84
2018-09-19T03:21:45.142Z,1010.82
2018-09-19T03:22:45.550Z,1010.81
2018-09-19T03:24:39.709Z,1010.77
2018-09-19T03:25:39.768Z,1010.82
2018-09-19T03:26:40.173Z,1010.79
2018-09-19T03:27:39.782Z,1010.80
2018-09-19T03:28:40.380Z,1010.77
2018-09-19T03:29:39.937Z,1010.80
2018-09-19T03:30:41.939Z,1010.74
2018-09-19T03:31:40.260Z,1010.76
2018-09-19T03:32:39.851Z,1010.76
2018-09-19T03:33:40.255Z,1010.75
2018-09-19T03:34:39.478Z,1010.74
2018-09-19T03:35:40.232Z,1010.75
2018-09-19T03:36:40.196Z,1010.77
2018-09-19T03:37:39.691Z,1010.70
2018-09-19T03:38:40.378Z,1010.67
2018-09-19T03:39:40.174Z,1010.69
2018-09-19T03:40:46.159Z,1010.70
2018-09-19T03:41:40.183Z,1010.70
2018-09-19T03:42:40.179Z,1010.69
2018-09-19T03:43:40.176Z,1010.67
2018-09-19T03:44:40.433Z,1010.66
2018-09-19T03:45:40.243Z,1010.66
2018-09-19T03:46:40.385Z,1010.70
2018-09-19T03:47:40.192Z,1010.64
2018-09-19T03:48:40.179Z,1010.69
2018-09-19T03:49:40.253Z,1010.73
2018-09-19T03:50:40.713Z,1010.73
2018-09-19T03:51:40.213Z,1010.77
2018-09-19T03:52:40.187Z,1010.77
2018-09-19T03:53:40.225Z,1010.76
2018-09-19T03:54:40.198Z,1010.79
2018-09-19T03:55:40.201Z,1010.80
2018-09-19T03:56:40.218Z,1010.82
2018-09-19T03:57:40.190Z,1010.79
2018-09-19T03:58:40.220Z,1010.82
2018-09-19T03:59:40.248Z,1010.77
2018-09-19T04:00:40.218Z,1010.78
2018-09-19T04:01:40.238Z,1010.82
2018-09-19T04:02:40.240Z,1010.80
2018-09-19T04:03:40.227Z,1010.83
2018-09-19T04:04:40.173Z,1010.84
2018-09-19T04:05:40.160Z,1010.81
2018-09-19T04:06:40.191Z,1010.77
2018-09-19T04:07:40.193Z,1010.76
2018-09-19T04:08:40.183Z,1010.79
2018-09-19T04:09:40.192Z,1010.82
2018-09-19T04:10:40.188Z,1010.80
2018-09-19T04:11:40.191Z,1010.83
2018-09-19T04:12:40.210Z,1010.83
2018-09-19T04:13:40.248Z,1010.84
2018-09-19T04:14:40.192Z,1010.88
2018-09-19T04:15:40.175Z,1010.88
2018-09-19T04:16:40.186Z,1010.80
2018-09-19T04:17:40.297Z,1010.84
2018-09-19T04:18:40.208Z,1010.85
2018-09-19T04:19:40.224Z,1010.85
2018-09-19T04:20:40.178Z,1010.85
2018-09-19T04:21:41.997Z,1010.81
2018-09-19T04:22:40.206Z,1010.87
2018-09-19T04:23:40.225Z,1010.86
2018-09-19T04:24:40.392Z,1010.89
2018-09-19T04:25:40.219Z,1010.88
2018-09-19T04:26:40.208Z,1010.90
2018-09-19T04:27:40.214Z,1010.90
2018-09-19T04:28:40.183Z,1010.93
2018-09-19T04:29:40.246Z,1010.93
2018-09-19T04:30:40.227Z,1010.95
2018-09-19T04:31:40.244Z,1011.00
2018-09-19T04:32:40.203Z,1010.97
2018-09-19T04:33:40.181Z,1010.95
2018-09-19T04:34:40.227Z,1010.97
2018-09-19T04:35:40.213Z,1010.89
2018-09-19T04:36:40.182Z,1010.91
2018-09-19T04:37:40.213Z,1010.92
2018-09-19T04:38:40.204Z,1010.91
2018-09-19T04:39:40.232Z,1010.98
2018-09-19T04:40:40.214Z,1011.00
2018-09-19T04:41:40.222Z,1010.93
2018-09-19T04:42:40.223Z,1010.96
2018-09-19T04:43:40.216Z,1010.98
2018-09-19T04:44:39.697Z,1010.95
2018-09-19T04:45:40.488Z,1010.99
2018-09-19T04:46:40.217Z,1010.97
2018-09-19T04:47:40.251Z,1010.96
2018-09-19T04:48:40.219Z,1010.99
2018-09-19T04:49:40.222Z,1010.97
2018-09-19T04:50:40.236Z,1010.96
2018-09-19T04:51:40.317Z,1010.97
2018-09-19T04:52:40.235Z,1011.00
2018-09-19T04:53:40.446Z,1010.94
2018-09-19T04:54:40.223Z,1010.98
2018-09-19T04:55:40.201Z,1010.94
2018-09-19T04:56:40.165Z,1010.94
2018-09-19T04:57:40.198Z,1010.92
2018-09-19T04:58:40.227Z,1010.94
2018-09-19T04:59:40.227Z,1010.91
2018-09-19T05:00:40.179Z,1010.88
2018-09-19T05:02:40.246Z,1010.91
2018-09-19T05:03:40.220Z,1010.85
2018-09-19T05:04:40.166Z,1010.88
2018-09-19T05:05:40.263Z,1010.86
2018-09-19T05:06:40.252Z,1010.85
2018-09-19T05:07:40.758Z,1010.89
2018-09-19T05:08:40.302Z,1010.91
2018-09-19T05:09:40.258Z,1010.93
2018-09-19T05:10:39.724Z,1010.92
2018-09-19T05:11:40.250Z,1010.93
2018-09-19T05:12:40.757Z,1010.93
2018-09-19T05:13:40.498Z,1010.95
2018-09-19T05:14:40.232Z,1010.90
2018-09-19T05:15:40.749Z,1010.95
2018-09-19T05:16:40.257Z,1010.93
2018-09-19T05:17:40.275Z,1010.94
2018-09-19T05:18:40.497Z,1010.93
2018-09-19T05:19:40.323Z,1010.98
2018-09-19T05:20:40.208Z,1011.01
2018-09-19T05:21:41.246Z,1010.98
2018-09-19T05:22:40.244Z,1011.00
2018-09-19T05:23:40.183Z,1010.99
2018-09-19T05:24:40.257Z,1010.99
2018-09-19T05:25:40.243Z,1011.00
2018-09-19T05:26:40.254Z,1011.06
2018-09-19T05:27:40.273Z,1011.06
2018-09-19T05:28:40.461Z,1011.05
2018-09-19T05:29:40.231Z,1011.05
2018-09-19T05:30:40.243Z,1011.07
2018-09-19T05:31:40.362Z,1011.06
2018-09-19T05:32:39.955Z,1011.08
2018-09-19T05:33:41.772Z,1011.10
2018-09-19T05:34:40.047Z,1011.12
2018-09-19T05:35:40.063Z,1011.13
2018-09-19T05:36:39.959Z,1011.15
2018-09-19T05:37:41.767Z,1011.19
2018-09-19T05:38:41.788Z,1011.17
2018-09-19T05:39:39.883Z,1011.17
2018-09-19T05:40:39.888Z,1011.20
2018-09-19T05:41:40.537Z,1011.17
2018-09-19T05:42:40.466Z,1011.19
2018-09-19T05:43:39.901Z,1011.20
2018-09-19T05:44:39.860Z,1011.17
2018-09-19T05:45:39.825Z,1011.16
2018-09-19T05:46:39.934Z,1011.18
2018-09-19T05:47:39.952Z,1011.14
2018-09-19T05:48:40.425Z,1011.14
2018-09-19T05:49:40.229Z,1011.13
2018-09-19T05:50:40.465Z,1011.14
2018-09-19T05:51:40.002Z,1011.13
2018-09-19T05:52:39.919Z,1011.14
2018-09-19T05:53:40.209Z,1011.18
2018-09-19T05:54:40.630Z,1011.15
2018-09-19T05:55:40.268Z,1011.16
2018-09-19T05:56:40.179Z,1011.16
2018-09-19T05:57:40.037Z,1011.15
2018-09-19T05:58:40.474Z,1011.11
2018-09-19T05:59:40.467Z,1011.10
2018-09-19T06:00:40.277Z,1011.12
2018-09-19T06:01:40.130Z,1011.08
2018-09-19T06:02:40.062Z,1011.06
2018-09-19T06:03:40.106Z,1011.05
2018-09-19T06:04:40.470Z,1011.03
2018-09-19T06:05:47.412Z,1011.09
2018-09-19T06:06:39.831Z,1011.03
2018-09-19T06:08:34.391Z,1010.99
2018-09-19T06:09:34.662Z,1010.97
2018-09-19T06:10:36.385Z,1011.00
2018-09-19T06:11:34.152Z,1010.95
2018-09-19T06:12:34.880Z,1010.99
2018-09-19T06:13:34.344Z,1010.96
2018-09-19T06:14:34.153Z,1011.02
2018-09-19T06:15:34.535Z,1010.95
2018-09-19T06:16:34.400Z,1010.96
2018-09-19T06:18:59.947Z,1010.93
2018-09-19T06:19:59.965Z,1010.89
2018-09-19T06:20:59.981Z,1010.90
2018-09-19T06:22:00.243Z,1010.92
2018-09-19T06:23:00.010Z,1010.90
2018-09-19T06:23:59.319Z,1010.93
2018-09-19T06:24:59.946Z,1010.91
2018-09-19T06:26:00.139Z,1010.90
2018-09-19T06:26:59.979Z,1010.96
2018-09-19T06:28:00.248Z,1010.94
2018-09-19T06:28:59.736Z,1010.94
2018-09-19T06:29:59.763Z,1010.97
2018-09-19T06:31:00.247Z,1010.97
2018-09-19T06:31:59.990Z,1010.98
2018-09-19T06:33:00.425Z,1010.97
2018-09-19T06:33:59.735Z,1010.98
2018-09-19T06:35:14.756Z,1010.96
2018-09-19T06:36:01.984Z,1010.95
2018-09-19T06:37:00.292Z,1010.95
2018-09-19T06:38:00.292Z,1010.97
2018-09-19T06:38:59.699Z,1010.92
2018-09-19T06:39:59.752Z,1010.96
2018-09-19T06:41:00.392Z,1010.96
2018-09-19T06:41:59.711Z,1010.95
2018-09-19T06:42:59.998Z,1010.90
2018-09-19T06:44:01.959Z,1010.93
2018-09-19T06:44:58.216Z,1010.89
2018-09-19T06:45:58.217Z,1010.90
2018-09-19T06:46:58.253Z,1010.91
2018-09-19T06:47:58.299Z,1010.96
2018-09-19T06:48:59.346Z,1010.91
2018-09-19T06:49:59.279Z,1010.94
2018-09-19T06:51:00.349Z,1010.89
2018-09-19T06:51:59.801Z,1010.90
2018-09-19T06:52:59.712Z,1010.86
2018-09-19T06:53:59.980Z,1010.84
2018-09-19T06:54:59.203Z,1010.83
2018-09-19T06:55:59.700Z,1010.83
2018-09-19T06:56:59.743Z,1010.79
2018-09-19T06:57:59.682Z,1010.82
2018-09-19T06:58:59.716Z,1010.82
2018-09-19T06:59:59.734Z,1010.77
2018-09-19T07:00:59.739Z,1010.75
2018-09-19T07:02:00.015Z,1010.69
2018-09-19T07:02:59.747Z,1010.68
2018-09-19T07:04:00.261Z,1010.62
2018-09-19T07:05:00.528Z,1010.58
2018-09-19T07:05:59.950Z,1010.54
2018-09-19T07:07:00.384Z,1010.52
2018-09-19T07:08:00.004Z,1010.56
2018-09-19T07:09:00.414Z,1010.52
2018-09-19T07:09:59.741Z,1010.54
2018-09-19T07:11:00.352Z,1010.59
2018-09-19T07:11:59.712Z,1010.59
2018-09-19T07:12:59.961Z,1010.62
2018-09-19T07:14:00.251Z,1010.65
2018-09-19T07:16:32.021Z,1010.70
2018-09-19T07:17:32.664Z,1010.73
2018-09-19T07:19:26.539Z,1010.73
2018-09-19T07:20:27.276Z,1010.74
2018-09-19T07:22:21.560Z,1010.74
2018-09-19T07:23:21.453Z,1010.77
2018-09-19T07:25:53.948Z,1010.83
2018-09-19T07:26:54.399Z,1010.82
2018-09-19T07:28:49.082Z,1010.87
2018-09-19T07:31:57.602Z,1010.91
2018-09-19T07:32:57.363Z,1010.89
2018-09-19T07:34:52.115Z,1010.86
2018-09-19T07:35:52.343Z,1010.81
2018-09-19T07:37:45.797Z,1010.82
2018-09-19T07:38:45.875Z,1010.78
2018-09-19T07:40:40.606Z,1010.76
2018-09-19T07:41:40.516Z,1010.77
2018-09-19T07:43:35.137Z,1010.70
2018-09-19T07:44:35.834Z,1010.64
2018-09-19T07:46:32.607Z,1010.63
2018-09-19T07:47:30.502Z,1010.67
2018-09-19T07:49:23.990Z,1010.76
2018-09-19T07:50:24.672Z,1010.79
2018-09-19T07:52:19.652Z,1010.81
2018-09-19T07:53:19.352Z,1010.83
2018-09-19T07:55:18.718Z,1010.93
2018-09-19T07:56:19.431Z,1010.95
2018-09-19T07:57:18.814Z,1010.98
2018-09-19T07:58:18.771Z,1011.00
2018-09-19T07:59:18.977Z,1011.03
2018-09-19T08:00:18.985Z,1011.00
2018-09-19T08:01:19.541Z,1011.05
2018-09-19T08:02:19.328Z,1011.01
2018-09-19T08:03:19.191Z,1011.02
2018-09-19T08:04:18.823Z,1010.99
2018-09-19T08:05:19.385Z,1010.97
2018-09-19T08:06:19.480Z,1010.99
2018-09-19T08:07:19.326Z,1011.01
2018-09-19T08:08:19.331Z,1011.01
2018-09-19T08:09:19.478Z,1011.04
2018-09-19T08:10:19.096Z,1011.04
2018-09-19T08:11:19.013Z,1011.04
2018-09-19T08:12:19.328Z,1011.04
2018-09-19T08:13:19.327Z,1011.05
2018-09-19T08:14:18.987Z,1011.03
2018-09-19T08:15:19.337Z,1011.03
2018-09-19T08:16:19.323Z,1011.03
2018-09-19T08:17:20.048Z,1011.07
2018-09-19T08:18:19.324Z,1011.06
2018-09-19T08:19:19.598Z,1011.14
2018-09-19T08:20:18.980Z,1011.12
2018-09-19T08:21:18.493Z,1011.10
2018-09-19T08:22:21.023Z,1011.09
2018-09-19T08:23:18.783Z,1011.05
2018-09-19T08:24:19.072Z,1011.03
2018-09-19T08:25:18.876Z,1010.98
2018-09-19T08:26:19.419Z,1010.97
2018-09-19T08:27:21.326Z,1011.00
2018-09-19T08:28:19.306Z,1010.98
2018-09-19T08:29:18.920Z,1010.92
2018-09-19T08:30:18.831Z,1010.90
2018-09-19T08:31:18.990Z,1010.86
2018-09-19T08:32:18.850Z,1010.85
2018-09-19T08:33:19.046Z,1010.84
2018-09-19T08:34:18.806Z,1010.93
2018-09-19T08:35:18.750Z,1010.91
2018-09-19T08:36:19.337Z,1010.99
2018-09-19T08:37:19.216Z,1010.98
2018-09-19T08:38:19.091Z,1011.06
2018-09-19T08:39:19.505Z,1011.00
2018-09-19T08:40:19.375Z,1011.01
2018-09-19T08:41:19.106Z,1010.97
2018-09-19T08:42:19.322Z,1010.98
2018-09-19T08:43:19.543Z,1010.91
2018-09-19T08:44:19.036Z,1010.96
2018-09-19T08:45:19.089Z,1010.95
2018-09-19T08:46:19.481Z,1010.98
2018-09-19T08:47:54.581Z,1010.97
2018-09-19T08:48:18.971Z,1011.01
2018-09-19T08:49:19.437Z,1010.98
2018-09-19T08:50:19.087Z,1011.01
2018-09-19T08:51:19.520Z,1010.93
2018-09-19T08:52:19.012Z,1010.80
2018-09-19T08:53:18.477Z,1010.85
2018-09-19T08:54:19.063Z,1010.83
2018-09-19T08:55:19.121Z,1010.77
2018-09-19T08:56:18.853Z,1010.76
2018-09-19T08:57:21.066Z,1010.70
2018-09-19T08:58:19.077Z,1010.75
2018-09-19T08:59:19.117Z,1010.67
2018-09-19T09:00:20.023Z,1010.69
2018-09-19T09:01:18.918Z,1010.75
2018-09-19T09:02:18.741Z,1010.70
2018-09-19T09:03:18.880Z,1010.73
2018-09-19T09:04:19.159Z,1010.67
2018-09-19T09:05:19.548Z,1010.69
2018-09-19T09:06:18.823Z,1010.69
2018-09-19T09:07:19.352Z,1010.72
2018-09-19T09:08:19.457Z,1010.70
2018-09-19T09:09:18.793Z,1010.61
2018-09-19T09:10:19.101Z,1010.56
2018-09-19T09:11:18.759Z,1010.62
2018-09-19T09:12:19.012Z,1010.54
2018-09-19T09:13:18.918Z,1010.54
2018-09-19T09:14:19.347Z,1010.58
2018-09-19T09:15:19.381Z,1010.53
2018-09-19T09:16:19.500Z,1010.53
2018-09-19T09:17:18.785Z,1010.59
2018-09-19T09:18:18.808Z,1010.60
2018-09-19T09:19:19.125Z,1010.53
2018-09-19T09:20:20.832Z,1010.59
2018-09-19T09:21:19.363Z,1010.61
2018-09-19T09:22:18.785Z,1010.57
2018-09-19T09:23:19.048Z,1010.54
2018-09-19T09:24:19.085Z,1010.58
2018-09-19T09:25:19.048Z,1010.60
2018-09-19T09:26:19.381Z,1010.56
2018-09-19T09:27:18.991Z,1010.61
2018-09-19T09:28:19.110Z,1010.62
2018-09-19T09:29:19.073Z,1010.58
2018-09-19T09:30:18.964Z,1010.56
2018-09-19T09:31:18.882Z,1010.54
2018-09-19T09:32:19.011Z,1010.49
2018-09-19T09:33:18.800Z,1010.54
2018-09-19T09:34:19.463Z,1010.49
2018-09-19T09:35:18.846Z,1010.55
2018-09-19T09:36:18.770Z,1010.50
2018-09-19T09:37:18.830Z,1010.58
2018-09-19T09:38:18.815Z,1010.54
2018-09-19T09:39:19.073Z,1010.58
2018-09-19T09:40:18.872Z,1010.57
2018-09-19T09:41:19.098Z,1010.54
2018-09-19T09:42:19.010Z,1010.57
2018-09-19T09:43:19.055Z,1010.43
2018-09-19T09:44:19.014Z,1010.44
2018-09-19T09:45:19.529Z,1010.40
2018-09-19T09:46:18.784Z,1010.41
2018-09-19T09:47:19.052Z,1010.39
2018-09-19T09:48:19.345Z,1010.39
2018-09-19T09:49:19.807Z,1010.39
2018-09-19T09:50:18.880Z,1010.43
2018-09-19T09:51:19.123Z,1010.42
2018-09-19T09:52:18.561Z,1010.37
2018-09-19T09:53:20.087Z,1010.35
2018-09-19T09:54:18.823Z,1010.41
2018-09-19T09:55:19.420Z,1010.41
2018-09-19T09:56:18.762Z,1010.38
2018-09-19T09:57:18.791Z,1010.35
2018-09-19T09:58:18.914Z,1010.29
2018-09-19T09:59:19.072Z,1010.30
2018-09-19T10:00:19.061Z,1010.30
2018-09-19T10:01:18.820Z,1010.25
2018-09-19T10:02:19.513Z,1010.26
2018-09-19T10:03:18.834Z,1010.19
2018-09-19T10:04:18.532Z,1010.17
2018-09-19T10:05:19.409Z,1010.23
2018-09-19T10:06:18.875Z,1010.18
2018-09-19T10:07:18.874Z,1010.16
2018-09-19T10:08:18.454Z,1010.16
2018-09-19T10:09:21.074Z,1010.08
2018-09-19T10:10:19.070Z,1010.25
2018-09-19T10:11:19.374Z,1010.19
2018-09-19T10:12:19.236Z,1010.18
2018-09-19T10:13:18.843Z,1010.21
2018-09-19T10:14:19.349Z,1010.13
2018-09-19T10:15:19.118Z,1010.18
2018-09-19T10:16:19.452Z,1010.24
2018-09-19T10:17:19.613Z,1010.25
2018-09-19T10:18:19.037Z,1010.11
2018-09-19T10:19:19.729Z,1010.12
2018-09-19T10:20:19.362Z,1009.99
2018-09-19T10:21:19.113Z,1010.03
2018-09-19T10:22:18.871Z,1009.92
2018-09-19T10:23:19.818Z,1009.82
2018-09-19T10:24:18.918Z,1009.93
2018-09-19T10:25:18.918Z,1009.90
2018-09-19T10:26:19.037Z,1009.97
2018-09-19T10:27:18.845Z,1009.96
2018-09-19T10:30:20.089Z,1010.00
2018-09-19T10:31:19.934Z,1009.91
2018-09-19T10:33:13.729Z,1009.93
2018-09-19T10:34:14.351Z,1010.01
2018-09-19T10:36:08.854Z,1010.00
2018-09-19T10:37:08.861Z,1009.98
2018-09-19T10:39:03.561Z,1009.93
2018-09-19T10:40:04.266Z,1009.97
2018-09-19T10:41:59.229Z,1010.03
2018-09-19T10:42:59.496Z,1010.00
2018-09-19T10:44:53.295Z,1009.90
2018-09-19T10:47:20.661Z,1010.02
2018-09-19T10:48:20.560Z,1009.92
2018-09-19T10:50:14.692Z,1009.90
2018-09-19T10:51:15.040Z,1009.98
2018-09-19T10:53:09.609Z,1009.99
2018-09-19T10:54:10.106Z,1009.94
2018-09-19T10:55:10.166Z,1010.02
2018-09-19T10:56:10.147Z,1009.99
2018-09-19T10:57:09.860Z,1010.06
2018-09-19T10:58:10.139Z,1010.12
2018-09-19T10:59:09.791Z,1010.08
2018-09-19T11:00:12.143Z,1010.09
2018-09-19T11:01:10.018Z,1010.09
2018-09-19T11:02:10.148Z,1009.97
2018-09-19T11:03:09.981Z,1009.91
2018-09-19T11:04:11.747Z,1009.99
2018-09-19T11:05:09.711Z,1010.05
2018-09-19T11:06:10.172Z,1009.94
2018-09-19T11:07:09.911Z,1009.88
2018-09-19T11:08:09.718Z,1009.87
2018-09-19T11:09:09.878Z,1010.11
2018-09-19T11:10:10.135Z,1010.18
2018-09-19T11:11:11.743Z,1009.79
2018-09-19T11:12:11.689Z,1010.10
2018-09-19T11:13:10.639Z,1010.08
2018-09-19T11:14:09.691Z,1010.12
2018-09-19T11:15:09.690Z,1009.88
2018-09-19T11:16:09.629Z,1010.15
2018-09-19T11:17:09.959Z,1010.20
2018-09-19T11:18:09.734Z,1009.97
2018-09-19T11:19:09.692Z,1009.98
2018-09-19T11:20:10.236Z,1010.16
2018-09-19T11:21:10.494Z,1010.26
2018-09-19T11:22:10.491Z,1010.30
2018-09-19T11:23:09.935Z,1010.22
2018-09-19T11:24:10.510Z,1010.05
2018-09-19T11:25:10.155Z,1010.00
2018-09-19T11:26:09.926Z,1010.07
2018-09-19T11:27:10.004Z,1009.94
2018-09-19T11:28:10.162Z,1010.09
2018-09-19T11:29:09.897Z,1010.00
2018-09-19T11:30:11.940Z,1010.13
2018-09-19T11:31:10.199Z,1010.05
2018-09-19T11:32:11.931Z,1010.04
2018-09-19T11:33:10.157Z,1010.40
2018-09-19T11:34:10.263Z,1010.16
2018-09-19T11:35:10.515Z,1010.07
2018-09-19T11:36:10.245Z,1010.17
2018-09-19T11:37:09.452Z,1010.08
2018-09-19T11:38:10.251Z,1010.42
2018-09-19T11:39:09.666Z,1010.22
2018-09-19T11:40:10.522Z,1010.13
2018-09-19T11:41:10.735Z,1010.30
2018-09-19T11:42:10.205Z,1010.48
2018-09-19T11:43:10.675Z,1010.06
2018-09-19T11:44:10.505Z,1010.08
2018-09-19T11:45:10.511Z,1010.47
2018-09-19T11:46:09.999Z,1010.41
2018-09-19T11:47:10.018Z,1010.36
2018-09-19T11:48:10.223Z,1010.12
2018-09-19T11:49:10.090Z,1010.35
2018-09-19T11:50:10.870Z,1010.40
2018-09-19T11:51:10.051Z,1010.25
2018-09-19T11:52:10.214Z,1010.17
2018-09-19T11:53:10.174Z,1010.46
2018-09-19T11:54:10.273Z,1010.47
2018-09-19T11:55:09.993Z,1010.10
2018-09-19T11:56:10.254Z,1010.18
2018-09-19T11:57:10.171Z,1010.49
2018-09-19T11:58:10.268Z,1010.08
2018-09-19T11:59:10.002Z,1010.12
2018-09-19T12:00:10.299Z,1010.44
2018-09-19T12:01:10.178Z,1010.08
2018-09-19T12:02:10.537Z,1010.42
2018-09-19T12:03:10.006Z,1010.03
2018-09-19T12:04:30.282Z,1010.20
2018-09-19T12:05:10.220Z,1010.25
2018-09-19T12:06:09.941Z,1010.12
2018-09-19T12:07:12.281Z,1010.06
2018-09-19T12:08:10.219Z,1010.09
2018-09-19T12:09:10.545Z,1010.12
2018-09-19T12:10:09.995Z,1010.38
2018-09-19T12:11:09.742Z,1010.33
2018-09-19T12:12:12.747Z,1010.13
2018-09-19T12:13:09.725Z,1010.02
2018-09-19T12:14:10.263Z,1010.01
2018-09-19T12:15:12.230Z,1010.06
2018-09-19T12:16:10.285Z,1010.35
2018-09-19T12:17:10.208Z,1010.32
2018-09-19T12:18:12.626Z,1010.17
2018-09-19T12:19:12.223Z,1010.25
2018-09-19T12:20:09.694Z,1010.29
2018-09-19T12:21:10.550Z,1010.27
2018-09-19T12:22:10.016Z,1010.32
2018-09-19T12:23:11.731Z,1010.24
2018-09-19T12:24:10.030Z,1010.28
2018-09-19T12:25:12.090Z,1010.31
2018-09-19T12:26:10.262Z,1010.26
2018-09-19T12:27:10.694Z,1010.30
2018-09-19T12:28:10.039Z,1010.02
2018-09-19T12:29:09.639Z,1010.26
2018-09-19T12:30:11.156Z,1010.37
2018-09-19T12:31:10.226Z,1010.14
2018-09-19T12:32:10.196Z,1010.11
2018-09-19T12:33:10.217Z,1010.09
2018-09-19T12:34:10.072Z,1010.07
2018-09-19T12:35:10.262Z,1010.13
2018-09-19T12:36:37.737Z,1009.99
2018-09-19T12:38:45.399Z,1010.31
2018-09-19T12:39:44.829Z,1010.24
2018-09-19T12:41:41.634Z,1009.91
2018-09-19T12:42:43.956Z,1009.80
2018-09-19T12:43:41.918Z,1009.80
2018-09-19T12:44:41.600Z,1009.83
2018-09-19T12:45:42.194Z,1010.00
2018-09-19T12:46:41.243Z,1010.14
2018-09-19T12:47:41.637Z,1010.18
2018-09-19T12:48:44.707Z,1010.21
2018-09-19T12:49:41.938Z,1010.23
2018-09-19T12:50:41.926Z,1010.28
2018-09-19T12:51:41.653Z,1010.25
2018-09-19T12:52:42.250Z,1010.20
2018-09-19T12:53:42.229Z,1010.20
2018-09-19T12:54:42.137Z,1010.14
2018-09-19T12:55:42.933Z,1010.24
2018-09-19T12:56:41.875Z,1010.18
2018-09-19T12:57:42.394Z,1010.11
2018-09-19T12:58:42.416Z,1010.20
2018-09-19T12:59:41.894Z,1010.14
2018-09-19T13:00:42.755Z,1010.17
2018-09-19T13:01:41.371Z,1010.09
2018-09-19T13:02:42.276Z,1010.23
2018-09-19T13:03:42.776Z,1010.22
2018-09-19T13:04:42.244Z,1010.44
2018-09-19T13:05:42.482Z,1010.22
2018-09-19T13:06:41.402Z,1010.17
2018-09-19T13:07:41.980Z,1010.04
2018-09-19T13:08:42.357Z,1010.39
2018-09-19T13:09:41.962Z,1010.32
2018-09-19T13:10:42.872Z,1010.38
2018-09-19T13:11:42.971Z,1009.90
2018-09-19T13:12:42.741Z,1009.75
2018-09-19T13:13:42.517Z,1009.97
2018-09-19T13:14:42.145Z,1010.31
2018-09-19T13:15:42.533Z,1010.24
2018-09-19T13:16:42.504Z,1010.23
2018-09-19T13:17:42.359Z,1010.25
2018-09-19T13:18:42.351Z,1010.17
2018-09-19T13:19:43.101Z,1010.26
2018-09-19T13:20:42.311Z,1010.25
2018-09-19T13:24:42.094Z,1009.52
2018-09-19T13:25:41.713Z,1010.09
2018-09-19T13:26:41.578Z,1010.18
2018-09-19T13:27:40.886Z,1010.18
2018-09-19T13:28:41.235Z,1010.23
2018-09-19T13:29:41.351Z,1010.05
2018-09-19T13:31:02.868Z,1010.16
2018-09-19T13:31:41.338Z,1010.21
2018-09-19T13:32:41.919Z,1010.13
2018-09-19T13:33:41.889Z,1010.15
2018-09-19T13:34:41.522Z,1010.17
2018-09-19T13:35:42.877Z,1010.23
2018-09-19T13:36:42.292Z,1010.15
2018-09-19T13:37:41.006Z,1010.17
2018-09-19T13:38:41.841Z,1010.05
2018-09-19T13:39:41.477Z,1010.08
2018-09-19T13:40:41.832Z,1010.13
2018-09-19T13:41:41.916Z,1010.14
2018-09-19T13:42:41.560Z,1010.02
2018-09-19T13:43:41.341Z,1010.07
2018-09-19T13:44:44.464Z,1009.60
2018-09-19T13:45:48.329Z,1010.11